createdAt,value
2019-03-26T00:02:25.874Z,101951.84
2019-03-26T00:07:31.841Z,101943.39
2019-03-26T00:12:37.972Z,101943.49
2019-03-26T00:17:43.823Z,101936.31
2019-03-26T00:22:49.907Z,101931.16
2019-03-26T00:27:55.796Z,101932.84
2019-03-26T00:33:01.934Z,101938.17
2019-03-26T00:38:07.891Z,101932.72
2019-03-26T00:43:13.834Z,101930.19
2019-03-26T00:48:19.836Z,101920.50
2019-03-26T00:53:25.777Z,101922.14
2019-03-26T00:58:31.877Z,101925.50
2019-03-26T01:03:37.927Z,101916.55
2019-03-26T01:08:43.869Z,101930.37
2019-03-26T01:13:49.971Z,101921.10
2019-03-26T01:18:55.901Z,101922.17
2019-03-26T01:24:01.791Z,101916.03
2019-03-26T01:29:08.438Z,101926.91
2019-03-26T01:34:14.317Z,101912.66
2019-03-26T01:39:20.207Z,101919.48
2019-03-26T01:44:26.056Z,101911.52
2019-03-26T01:49:31.976Z,101925.55
2019-03-26T01:54:37.792Z,101912.13
2019-03-26T01:59:43.842Z,101922.50
2019-03-26T02:04:59.812Z,101917.32
2019-03-26T02:09:57.369Z,101921.59
2019-03-26T02:15:03.285Z,101916.72
2019-03-26T02:20:09.238Z,101914.10
2019-03-26T02:25:15.137Z,101923.91
2019-03-26T02:30:21.035Z,101914.14
2019-03-26T02:35:26.895Z,101913.00
2019-03-26T02:40:32.737Z,101904.63
2019-03-26T02:45:38.544Z,101905.49
2019-03-26T02:50:44.521Z,101895.59
2019-03-26T02:55:50.473Z,101891.61
2019-03-26T03:00:56.268Z,101893.42
2019-03-26T03:06:02.124Z,101893.00
2019-03-26T03:11:08.373Z,101895.46
2019-03-26T03:16:14.456Z,101891.46
2019-03-26T03:21:20.494Z,101891.17
2019-03-26T03:26:26.571Z,101895.95
2019-03-26T03:31:32.403Z,101876.44
2019-03-26T03:36:38.331Z,101895.20
2019-03-26T03:41:44.113Z,101885.29
2019-03-26T03:46:51.026Z,101891.69
2019-03-26T03:51:58.699Z,101886.12
2019-03-26T03:57:06.633Z,101879.80
2019-03-26T04:02:12.878Z,101877.16
2019-03-26T04:07:18.808Z,101874.89
2019-03-26T04:12:24.753Z,101887.52
2019-03-26T04:17:30.841Z,101864.28
2019-03-26T04:22:36.673Z,101881.08
2019-03-26T04:27:42.684Z,101881.61
2019-03-26T04:32:48.463Z,101893.73
2019-03-26T04:37:54.426Z,101872.70
2019-03-26T04:43:00.350Z,101887.16
2019-03-26T04:48:06.347Z,101889.34
2019-03-26T04:53:12.231Z,101875.33
2019-03-26T04:58:18.136Z,101896.62
2019-03-26T05:03:24.026Z,101880.06
2019-03-26T05:08:30.342Z,101882.89
2019-03-26T05:13:36.401Z,101884.77
2019-03-26T05:18:42.494Z,101874.70
2019-03-26T05:23:48.317Z,101877.48
2019-03-26T05:28:54.226Z,101877.54
2019-03-26T05:34:00.196Z,101882.61
2019-03-26T05:39:07.277Z,101883.68
2019-03-26T05:44:13.098Z,101873.38
2019-03-26T05:49:19.152Z,101886.73
2019-03-26T05:54:25.162Z,101881.70
2019-03-26T05:59:30.996Z,101883.16
2019-03-26T06:04:36.876Z,101880.36
2019-03-26T06:09:42.733Z,101874.43
2019-03-26T06:14:48.652Z,101882.70
2019-03-26T06:19:54.792Z,101883.30
2019-03-26T06:25:00.976Z,101888.66
2019-03-26T06:30:08.071Z,101892.66
2019-03-26T06:35:14.041Z,101896.25
2019-03-26T06:40:20.021Z,101901.91
2019-03-26T06:45:26.229Z,101900.33
2019-03-26T06:50:32.165Z,101902.02
2019-03-26T06:55:38.013Z,101903.41
2019-03-26T07:00:43.976Z,101907.09
2019-03-26T07:05:50.051Z,101912.66
2019-03-26T07:10:56.032Z,101905.44
2019-03-26T07:16:02.128Z,101908.64
2019-03-26T07:21:08.006Z,101901.80
2019-03-26T07:26:14.077Z,101905.05
2019-03-26T07:31:20.002Z,101908.19
2019-03-26T07:36:25.912Z,101913.98
2019-03-26T07:41:32.150Z,101914.04
2019-03-26T07:46:38.431Z,101917.47
2019-03-26T07:51:45.014Z,101911.23
2019-03-26T07:56:50.901Z,101904.30
2019-03-26T08:01:56.802Z,101917.33
2019-03-26T08:07:02.733Z,101915.95
2019-03-26T08:12:08.906Z,101924.28
2019-03-26T08:17:14.881Z,101930.83
2019-03-26T08:22:20.837Z,101933.56
2019-03-26T08:27:26.763Z,101938.49
2019-03-26T08:32:33.006Z,101940.73
2019-03-26T08:37:39.539Z,101944.78
2019-03-26T08:42:47.297Z,101950.12
2019-03-26T08:47:53.742Z,101953.65
2019-03-26T08:52:59.857Z,101951.47
2019-03-26T08:58:05.866Z,101948.45
2019-03-26T09:03:11.847Z,101955.52
2019-03-26T09:08:25.172Z,101964.28
2019-03-26T09:13:25.705Z,101962.88
2019-03-26T09:18:31.752Z,101959.89
2019-03-26T09:23:37.743Z,101951.59
2019-03-26T09:28:43.587Z,101957.51
2019-03-26T09:33:49.481Z,101956.77
2019-03-26T09:38:55.364Z,101962.64
2019-03-26T09:44:01.182Z,101969.05
2019-03-26T09:49:07.571Z,101964.83
2019-03-26T09:54:13.440Z,101968.80
2019-03-26T09:59:19.558Z,101971.83
2019-03-26T10:04:26.367Z,101966.84
2019-03-26T10:09:32.218Z,101977.40
2019-03-26T10:14:38.377Z,101960.42
2019-03-26T10:19:44.347Z,101959.22
2019-03-26T10:24:50.566Z,101963.58
2019-03-26T10:29:56.837Z,101962.30
2019-03-26T10:35:02.881Z,101971.22
2019-03-26T10:40:10.303Z,101952.61
2019-03-26T10:45:16.358Z,101958.10
2019-03-26T10:50:22.609Z,101955.90
2019-03-26T10:55:28.883Z,101945.23
2019-03-26T11:00:34.937Z,101951.98
2019-03-26T11:05:41.153Z,101950.72
2019-03-26T11:10:47.452Z,101943.39
2019-03-26T11:15:53.351Z,101946.27
2019-03-26T11:21:03.319Z,101951.75
2019-03-26T11:26:06.912Z,101949.70
2019-03-26T11:31:13.358Z,101955.31
2019-03-26T11:36:19.381Z,101954.89
2019-03-26T11:41:25.517Z,101953.78
2019-03-26T11:46:31.547Z,101948.36
2019-03-26T11:51:37.833Z,101959.47
2019-03-26T11:56:43.673Z,101951.81
2019-03-26T12:01:52.334Z,101953.86
2019-03-26T12:06:57.249Z,101950.97
2019-03-26T12:12:03.178Z,101949.16
2019-03-26T12:17:10.084Z,101945.98
2019-03-26T12:22:18.763Z,101956.16
2019-03-26T12:27:24.878Z,101946.56
2019-03-26T12:32:31.898Z,101948.27
2019-03-26T12:37:38.355Z,101942.73
2019-03-26T12:42:44.820Z,101935.08
2019-03-26T12:47:52.112Z,101937.60
2019-03-26T12:52:58.347Z,101929.64
2019-03-26T12:58:06.227Z,101932.36
2019-03-26T13:03:12.383Z,101930.86
2019-03-26T13:08:18.830Z,101927.52
2019-03-26T13:13:24.993Z,101925.59
2019-03-26T13:18:31.142Z,101922.77
2019-03-26T13:23:37.492Z,101919.48
2019-03-26T13:28:44.587Z,101921.25
2019-03-26T13:33:50.506Z,101912.92
2019-03-26T13:38:56.685Z,101904.92
2019-03-26T13:44:04.382Z,101894.73
2019-03-26T13:49:10.303Z,101899.47
2019-03-26T13:54:16.273Z,101885.59
2019-03-26T13:59:24.972Z,101884.47
2019-03-26T14:04:31.377Z,101874.20
2019-03-26T14:09:38.549Z,101878.94
2019-03-26T14:14:44.475Z,101874.08
2019-03-26T14:19:50.397Z,101865.38
2019-03-26T14:24:56.698Z,101851.95
2019-03-26T14:30:03.023Z,101858.44
2019-03-26T14:35:10.742Z,101852.47
2019-03-26T14:40:17.068Z,101844.13
2019-03-26T14:45:23.058Z,101844.13
2019-03-26T14:50:30.123Z,101838.87
2019-03-26T14:55:36.162Z,101847.82
2019-03-26T15:00:42.209Z,101845.81
2019-03-26T15:05:50.838Z,101824.14
2019-03-26T15:11:07.545Z,101836.27
2019-03-26T15:16:05.087Z,101840.53
2019-03-26T15:21:10.987Z,101828.59
2019-03-26T15:26:18.439Z,101823.65
2019-03-26T15:31:24.441Z,101820.83
2019-03-26T15:36:30.482Z,101824.34
2019-03-26T15:41:36.407Z,101815.03
2019-03-26T15:46:42.289Z,101817.36
2019-03-26T15:51:48.432Z,101816.59
2019-03-26T15:56:54.425Z,101812.56
2019-03-26T16:02:00.689Z,101809.05
2019-03-26T16:07:07.004Z,101811.37
2019-03-26T16:12:13.554Z,101807.14
2019-03-26T16:17:19.536Z,101813.82
2019-03-26T16:22:25.609Z,101806.14
2019-03-26T16:27:31.792Z,101809.22
2019-03-26T16:32:38.011Z,101801.99
2019-03-26T16:37:47.063Z,101803.41
2019-03-26T16:42:54.254Z,101799.36
2019-03-26T16:48:00.371Z,101799.59
2019-03-26T16:53:07.409Z,101785.88
2019-03-26T16:58:13.490Z,101797.38
2019-03-26T17:03:30.688Z,101793.69
2019-03-26T17:08:30.711Z,101798.95
2019-03-26T17:13:36.791Z,101793.17
2019-03-26T17:18:43.555Z,101794.92
2019-03-26T17:23:49.611Z,101792.61
2019-03-26T17:28:55.872Z,101798.09
2019-03-26T17:34:02.630Z,101787.13
2019-03-26T17:39:10.045Z,101784.08
2019-03-26T17:44:16.045Z,101781.36
2019-03-26T17:49:21.973Z,101782.42
2019-03-26T17:54:28.193Z,101785.99
2019-03-26T17:59:34.211Z,101794.52
2019-03-26T18:04:43.634Z,101801.64
2019-03-26T18:09:49.646Z,101806.99
2019-03-26T18:14:55.738Z,101808.30
2019-03-26T18:20:02.198Z,101806.13
2019-03-26T18:25:08.757Z,101813.66
2019-03-26T18:30:14.991Z,101808.33
2019-03-26T18:35:21.056Z,101817.64
2019-03-26T18:40:27.091Z,101804.78
2019-03-26T18:45:33.451Z,101817.61
2019-03-26T18:50:39.371Z,101812.71
2019-03-26T18:55:45.627Z,101821.55
2019-03-26T19:00:55.650Z,101821.39
2019-03-26T19:06:01.970Z,101840.45
2019-03-26T19:11:08.147Z,101843.48
2019-03-26T19:16:14.681Z,101848.68
2019-03-26T19:21:20.978Z,101847.61
2019-03-26T19:26:27.451Z,101845.86
2019-03-26T19:31:33.531Z,101849.89
2019-03-26T19:36:40.092Z,101861.67
2019-03-26T19:41:46.276Z,101857.61
2019-03-26T19:46:52.353Z,101865.70
2019-03-26T19:57:15.943Z,101875.77
2019-03-26T20:02:22.166Z,101877.61
2019-03-26T20:07:28.245Z,101872.02
2019-03-26T20:12:34.261Z,101879.63
2019-03-26T20:17:40.161Z,101873.38
2019-03-26T20:22:46.196Z,101882.20
2019-03-26T20:27:52.282Z,101876.89
2019-03-26T20:32:58.583Z,101892.30
2019-03-26T20:38:04.555Z,101888.14
2019-03-26T20:43:10.433Z,101900.39
2019-03-26T20:48:16.276Z,101895.67
2019-03-26T20:53:22.431Z,101897.13
2019-03-26T20:58:28.583Z,101904.95
2019-03-26T21:03:34.667Z,101883.59
2019-03-26T21:08:40.501Z,101898.57
2019-03-26T21:13:51.086Z,101903.27
2019-03-26T21:18:57.486Z,101904.37
2019-03-26T21:24:05.012Z,101895.59
2019-03-26T21:29:10.956Z,101905.11
2019-03-26T21:34:29.885Z,101901.64
2019-03-26T21:39:24.841Z,101911.71
2019-03-26T21:44:30.686Z,101917.59
2019-03-26T21:49:36.891Z,101913.50
2019-03-26T21:54:42.871Z,101906.17
2019-03-26T21:59:49.051Z,101913.27
2019-03-26T22:04:55.462Z,101906.59
2019-03-26T22:10:01.716Z,101907.16
2019-03-26T22:15:12.053Z,101898.47
2019-03-26T22:20:18.262Z,101906.86
2019-03-26T22:25:24.076Z,101906.50
2019-03-26T22:30:31.217Z,101915.60
2019-03-26T22:35:37.190Z,101924.77
2019-03-26T22:40:43.108Z,101922.23
2019-03-26T22:45:49.225Z,101919.25
2019-03-26T22:50:54.998Z,101915.70
2019-03-26T22:56:01.257Z,101915.82
2019-03-26T23:01:07.330Z,101918.32
2019-03-26T23:06:13.315Z,101909.11
2019-03-26T23:11:19.311Z,101904.61
2019-03-26T23:16:25.396Z,101916.03
2019-03-26T23:21:31.263Z,101920.30
2019-03-26T23:26:37.330Z,101928.87
2019-03-26T23:31:43.298Z,101930.48
2019-03-26T23:36:49.260Z,101940.06
2019-03-26T23:41:55.163Z,101928.94
2019-03-26T23:47:01.262Z,101920.52
2019-03-26T23:52:08.008Z,101931.56
2019-03-26T23:57:15.986Z,101931.56
